Time;durP1;ratioP1;P1;durP2;ratioP2;P2;SDS_P1;SDS_P2;PMS_P1;PMS_P2;Temp;Humidity;BMP_temperature;BMP_pressure;BME280_temperature;BME280_humidity;BME280_pressure;Samples;Min_cycle;Max_cycle;Signal;HPM_P1;HPM_P2
2021/11/29 00:01:05;;;;;;;;;;;-0.20;99.90;;;;;;8364676;28;19987;-65
2021/11/29 00:05:05;;;;;;;;;;;0.10;99.90;;;;;;8364559;28;19920;-64
2021/11/29 00:09:06;;;;;;;;;;;0.30;99.90;;;;;;8364323;28;19917;-64
2021/11/29 00:13:06;;;;;;;;;;;0.10;99.90;;;;;;8364470;28;19917;-66
2021/11/29 00:17:07;;;;;;;;;;;0.10;99.90;;;;;;8363891;28;20311;-65
2021/11/29 00:21:08;;;;;;;;;;;0.10;99.90;;;;;;8364105;28;19909;-65
2021/11/29 00:25:08;;;;;;;;;;;-0.10;99.90;;;;;;8362214;28;19942;-65
2021/11/29 00:29:09;;;;;;;;;;;-0.10;99.90;;;;;;8354775;28;20019;-65
2021/11/29 00:33:10;;;;;;;;;;;-0.10;99.90;;;;;;8362430;28;19912;-66
2021/11/29 00:37:11;;;;;;;;;;;-0.10;99.90;;;;;;8363541;28;20370;-65
2021/11/29 00:41:11;;;;;;;;;;;0.10;99.90;;;;;;8363763;28;19909;-65
2021/11/29 00:45:12;;;;;;;;;;;0.00;99.90;;;;;;8363396;28;20014;-65
2021/11/29 00:49:12;;;;;;;;;;;-0.10;99.90;;;;;;8361847;28;20279;-65
2021/11/29 00:53:13;;;;;;;;;;;0.00;99.90;;;;;;8363083;28;20380;-65
2021/11/29 00:57:13;;;;;;;;;;;0.20;99.90;;;;;;8335112;28;20357;-65
2021/11/29 01:01:14;;;;;;;;;;;0.20;99.90;;;;;;8362914;28;19909;-65
2021/11/29 01:05:14;;;;;;;;;;;0.30;99.90;;;;;;8362737;28;19942;-65
2021/11/29 01:09:15;;;;;;;;;;;0.50;99.90;;;;;;8361712;28;19909;-64
2021/11/29 01:13:15;;;;;;;;;;;0.40;99.90;;;;;;8362784;28;19909;-64
2021/11/29 01:17:16;;;;;;;;;;;0.30;99.90;;;;;;8362811;28;20387;-64
2021/11/29 01:21:17;;;;;;;;;;;0.30;99.90;;;;;;8362812;28;19920;-65
2021/11/29 01:25:18;;;;;;;;;;;0.30;99.90;;;;;;8359789;28;19959;-64
2021/11/29 01:29:18;;;;;;;;;;;0.40;99.90;;;;;;8354647;28;19909;-65
2021/11/29 01:33:19;;;;;;;;;;;0.40;99.90;;;;;;8344275;28;19995;-66
2021/11/29 01:37:19;;;;;;;;;;;0.40;99.90;;;;;;8361840;28;20557;-64
2021/11/29 01:41:20;;;;;;;;;;;0.60;99.90;;;;;;8361775;28;20379;-65
2021/11/29 01:45:20;;;;;;;;;;;0.70;99.90;;;;;;8361611;28;19913;-65
2021/11/29 01:49:21;;;;;;;;;;;0.50;99.90;;;;;;8361695;28;20019;-65
2021/11/29 01:53:23;;;;;;;;;;;0.50;99.90;;;;;;8361541;28;19959;-65
2021/11/29 01:57:23;;;;;;;;;;;0.50;99.90;;;;;;8350861;28;19909;-64
2021/11/29 02:01:25;;;;;;;;;;;0.70;99.90;;;;;;8361672;28;19935;-65
2021/11/29 02:05:26;;;;;;;;;;;0.50;99.90;;;;;;8331996;28;19924;-65
2021/11/29 02:09:26;;;;;;;;;;;0.60;99.90;;;;;;8328232;28;19913;-65
2021/11/29 02:13:27;;;;;;;;;;;0.80;99.90;;;;;;8328247;28;20299;-65
2021/11/29 02:17:29;;;;;;;;;;;0.80;99.90;;;;;;8327642;28;19936;-65
2021/11/29 02:21:33;;;;;;;;;;;0.80;99.90;;;;;;8327438;28;20319;-64
2021/11/29 02:25:34;;;;;;;;;;;0.70;99.90;;;;;;8312460;28;19913;-65
2021/11/29 02:29:35;;;;;;;;;;;0.70;99.90;;;;;;8360026;28;19936;-65
2021/11/29 02:33:35;;;;;;;;;;;0.60;99.90;;;;;;8360202;28;19955;-64
2021/11/29 02:37:36;;;;;;;;;;;0.60;99.90;;;;;;8342114;28;20418;-66
2021/11/29 02:41:36;;;;;;;;;;;0.60;99.90;;;;;;8359899;28;20352;-64
2021/11/29 02:45:37;;;;;;;;;;;0.50;99.90;;;;;;8359443;28;19936;-66
2021/11/29 02:49:37;;;;;;;;;;;0.40;99.90;;;;;;8359376;28;19915;-65
2021/11/29 02:53:38;;;;;;;;;;;0.20;99.90;;;;;;8358497;28;19915;-65
2021/11/29 02:57:38;;;;;;;;;;;0.20;99.90;;;;;;8348700;28;20005;-65
2021/11/29 03:01:40;;;;;;;;;;;0.10;99.90;;;;;;8359185;28;19909;-64
2021/11/29 03:05:46;;;;;;;;;;;-0.10;99.90;;;;;;8333200;28;19928;-65
2021/11/29 03:09:47;;;;;;;;;;;-0.20;99.90;;;;;;8326031;28;20001;-65
2021/11/29 03:13:48;;;;;;;;;;;-0.20;99.90;;;;;;8308673;28;19935;-64
2021/11/29 03:17:48;;;;;;;;;;;-0.70;99.90;;;;;;8326097;28;19916;-65
2021/11/29 03:21:49;;;;;;;;;;;-0.80;99.90;;;;;;8325971;28;19909;-64
2021/11/29 03:25:49;;;;;;;;;;;-0.80;99.90;;;;;;8313507;28;19967;-65
2021/11/29 03:29:50;;;;;;;;;;;-0.60;99.90;;;;;;8358140;28;19908;-64
2021/11/29 03:33:55;;;;;;;;;;;-0.30;99.90;;;;;;8358695;28;19958;-65
2021/11/29 03:37:55;;;;;;;;;;;-0.20;99.90;;;;;;8358415;28;20363;-65
2021/11/29 03:41:57;;;;;;;;;;;-0.30;99.90;;;;;;8357809;28;19913;-64
2021/11/29 03:45:58;;;;;;;;;;;0.10;99.90;;;;;;8358423;28;19924;-64
2021/11/29 03:49:58;;;;;;;;;;;0.10;99.90;;;;;;8340463;28;19916;-64
2021/11/29 03:53:59;;;;;;;;;;;0.10;99.90;;;;;;8358493;28;19947;-64
2021/11/29 03:58:00;;;;;;;;;;;0.10;99.90;;;;;;8347788;28;19909;-65
2021/11/29 04:02:00;;;;;;;;;;;-0.10;99.90;;;;;;8358245;28;19909;-65
2021/11/29 04:06:00;;;;;;;;;;;-0.10;99.90;;;;;;8340910;28;19912;-65
2021/11/29 04:10:01;;;;;;;;;;;0.10;99.90;;;;;;8358252;28;19908;-65
2021/11/29 04:14:02;;;;;;;;;;;0.00;99.90;;;;;;8358446;28;19935;-64
2021/11/29 04:18:04;;;;;;;;;;;0.10;99.90;;;;;;8358494;28;20272;-65
2021/11/29 04:22:05;;;;;;;;;;;0.10;99.90;;;;;;8357810;28;19917;-64
2021/11/29 04:26:06;;;;;;;;;;;0.10;99.90;;;;;;8331153;28;20409;-64
2021/11/29 04:30:12;;;;;;;;;;;0.10;99.90;;;;;;8363107;28;20366;-65
2021/11/29 04:34:12;;;;;;;;;;;0.00;99.90;;;;;;8363962;28;19916;-65
2021/11/29 04:38:13;;;;;;;;;;;0.00;99.90;;;;;;8337308;28;19998;-64
2021/11/29 04:42:14;;;;;;;;;;;0.00;99.90;;;;;;8330342;28;20010;-65
2021/11/29 04:46:14;;;;;;;;;;;0.10;99.90;;;;;;8355358;22;19940;-66
2021/11/29 04:50:15;;;;;;;;;;;0.00;99.90;;;;;;8346849;28;19936;-67
2021/11/29 04:54:15;;;;;;;;;;;0.10;99.90;;;;;;8332281;28;19909;-66
2021/11/29 04:58:16;;;;;;;;;;;0.00;99.90;;;;;;8322066;28;19959;-67
2021/11/29 05:02:17;;;;;;;;;;;0.00;99.90;;;;;;8345642;28;19986;-66
2021/11/29 05:06:17;;;;;;;;;;;0.00;99.90;;;;;;8343850;28;20290;-66
2021/11/29 05:10:18;;;;;;;;;;;-0.10;99.90;;;;;;8338274;28;20313;-66
2021/11/29 05:14:18;;;;;;;;;;;-0.10;99.90;;;;;;8335053;28;20383;-66
2021/11/29 05:18:19;;;;;;;;;;;-0.10;99.90;;;;;;8313151;28;19916;-67
2021/11/29 05:22:21;;;;;;;;;;;-0.20;99.90;;;;;;8344409;28;19924;-66
2021/11/29 05:26:23;;;;;;;;;;;-0.20;99.90;;;;;;8334900;28;20295;-67
2021/11/29 05:30:23;;;;;;;;;;;-0.10;99.90;;;;;;8353510;28;19987;-67
2021/11/29 05:34:24;;;;;;;;;;;-0.30;99.90;;;;;;8314218;28;19963;-67
2021/11/29 05:38:24;;;;;;;;;;;-0.20;99.90;;;;;;8328534;28;19909;-66
2021/11/29 05:42:25;;;;;;;;;;;-0.30;99.90;;;;;;8328913;28;20371;-67
2021/11/29 05:46:25;;;;;;;;;;;-0.20;99.90;;;;;;8328911;28;19920;-67
2021/11/29 05:50:26;;;;;;;;;;;-0.40;99.90;;;;;;8328242;28;19957;-67
2021/11/29 05:54:27;;;;;;;;;;;-0.50;99.90;;;;;;8328277;28;20007;-67
2021/11/29 05:58:27;;;;;;;;;;;-0.70;99.90;;;;;;8320693;28;19909;-67
2021/11/29 06:02:28;;;;;;;;;;;-0.90;99.90;;;;;;8336236;28;19920;-66
2021/11/29 06:06:28;;;;;;;;;;;-1.00;99.90;;;;;;8342351;28;19909;-67
2021/11/29 06:10:29;;;;;;;;;;;-1.10;99.90;;;;;;8328532;28;19920;-67
2021/11/29 06:14:29;;;;;;;;;;;-1.00;99.90;;;;;;8328753;28;20386;-67
2021/11/29 06:18:30;;;;;;;;;;;-1.00;99.90;;;;;;8328046;28;20016;-67
2021/11/29 06:22:30;;;;;;;;;;;-1.10;99.90;;;;;;8328051;28;20276;-68
2021/11/29 06:26:30;;;;;;;;;;;-1.20;99.90;;;;;;8332508;28;20749;-68
2021/11/29 06:30:32;;;;;;;;;;;-1.00;99.90;;;;;;8315123;28;19936;-67
2021/11/29 06:34:32;;;;;;;;;;;-0.70;99.90;;;;;;8315594;28;19920;-67
2021/11/29 06:38:33;;;;;;;;;;;-0.70;99.90;;;;;;8337997;28;19917;-67
2021/11/29 06:42:34;;;;;;;;;;;-0.90;99.90;;;;;;8341989;28;19917;-68
2021/11/29 06:46:34;;;;;;;;;;;-1.10;99.90;;;;;;8334191;28;19913;-65
2021/11/29 06:50:35;;;;;;;;;;;-1.40;99.90;;;;;;8338209;28;20406;-65
2021/11/29 06:54:37;;;;;;;;;;;-1.50;99.90;;;;;;8332264;28;20379;-65
2021/11/29 06:58:37;;;;;;;;;;;-1.30;99.90;;;;;;8336571;28;20283;-64
2021/11/29 07:02:41;;;;;;;;;;;-1.60;99.90;;;;;;8319447;28;19916;-65
2021/11/29 07:06:41;;;;;;;;;;;-1.40;99.90;;;;;;8343040;28;19912;-64
2021/11/29 07:10:42;;;;;;;;;;;-1.30;99.90;;;;;;8342010;28;20353;-64
2021/11/29 07:14:43;;;;;;;;;;;-1.60;99.90;;;;;;8339752;28;19909;-64
2021/11/29 07:18:43;;;;;;;;;;;-1.60;99.90;;;;;;8330695;28;20274;-64
2021/11/29 07:22:44;;;;;;;;;;;-1.90;99.90;;;;;;8341179;28;19919;-64
2021/11/29 07:26:45;;;;;;;;;;;-1.80;99.90;;;;;;8340998;28;19909;-64
2021/11/29 07:30:45;;;;;;;;;;;-1.40;99.90;;;;;;8333564;28;19908;-64
2021/11/29 07:34:46;;;;;;;;;;;-1.40;99.90;;;;;;8352774;28;19913;-65
2021/11/29 07:38:47;;;;;;;;;;;-1.40;99.90;;;;;;8341801;28;19928;-64
2021/11/29 07:42:47;;;;;;;;;;;-1.20;99.90;;;;;;8352229;28;19921;-64
2021/11/29 07:46:48;;;;;;;;;;;-0.90;99.90;;;;;;8341483;28;19917;-65
2021/11/29 07:50:48;;;;;;;;;;;-0.50;99.90;;;;;;8344185;28;19914;-64
2021/11/29 07:54:49;;;;;;;;;;;-0.30;99.90;;;;;;8325503;28;19909;-64
2021/11/29 07:58:49;;;;;;;;;;;-0.20;99.90;;;;;;8336456;28;20000;-64
2021/11/29 08:02:51;;;;;;;;;;;-0.10;99.90;;;;;;8337772;28;19921;-64
2021/11/29 08:06:52;;;;;;;;;;;0.10;99.90;;;;;;8356187;28;19909;-64
2021/11/29 08:10:53;;;;;;;;;;;0.20;99.90;;;;;;8330398;28;19999;-64
2021/11/29 08:14:53;;;;;;;;;;;0.50;99.90;;;;;;8330025;28;19913;-65
2021/11/29 08:18:54;;;;;;;;;;;0.70;99.90;;;;;;8347705;28;19940;-65
2021/11/29 08:22:55;;;;;;;;;;;1.00;99.90;;;;;;8347113;28;19913;-65
2021/11/29 08:26:55;;;;;;;;;;;1.30;99.90;;;;;;8347863;28;20050;-65
2021/11/29 08:30:56;;;;;;;;;;;1.40;99.90;;;;;;8331766;28;19909;-65
2021/11/29 08:34:56;;;;;;;;;;;1.40;99.90;;;;;;8347093;28;19913;-64
2021/11/29 08:38:57;;;;;;;;;;;1.70;99.90;;;;;;8348054;28;20332;-64
2021/11/29 08:42:58;;;;;;;;;;;1.60;99.90;;;;;;8346678;28;20440;-65
2021/11/29 08:46:59;;;;;;;;;;;1.70;99.90;;;;;;8358068;28;20309;-64
2021/11/29 08:51:00;;;;;;;;;;;1.90;99.90;;;;;;8346227;28;19916;-65
2021/11/29 08:55:02;;;;;;;;;;;1.80;99.90;;;;;;8345481;28;19917;-65
2021/11/29 08:59:03;;;;;;;;;;;1.80;99.90;;;;;;8354001;28;19927;-65
2021/11/29 09:03:07;;;;;;;;;;;1.90;99.90;;;;;;8345326;28;19919;-65
2021/11/29 09:07:07;;;;;;;;;;;1.80;99.90;;;;;;8363190;28;19952;-65
2021/11/29 09:11:09;;;;;;;;;;;1.70;99.90;;;;;;8363409;28;19909;-64
2021/11/29 09:15:11;;;;;;;;;;;1.60;99.90;;;;;;8348638;28;19913;-64
2021/11/29 09:19:12;;;;;;;;;;;1.60;99.90;;;;;;8344941;28;19952;-64
2021/11/29 09:23:13;;;;;;;;;;;1.60;99.90;;;;;;8347817;28;19923;-65
2021/11/29 09:27:13;;;;;;;;;;;1.40;99.90;;;;;;8346928;28;19917;-64
2021/11/29 09:31:14;;;;;;;;;;;1.20;99.90;;;;;;8340701;28;19909;-64
2021/11/29 09:35:16;;;;;;;;;;;1.20;99.90;;;;;;8329737;28;19936;-64
2021/11/29 09:39:17;;;;;;;;;;;1.40;99.90;;;;;;8345232;28;20318;-64
2021/11/29 09:43:18;;;;;;;;;;;1.50;99.90;;;;;;8328025;28;19920;-64
2021/11/29 09:47:19;;;;;;;;;;;1.60;99.90;;;;;;8341538;28;20028;-64
2021/11/29 09:51:20;;;;;;;;;;;1.60;99.90;;;;;;8321786;28;19917;-64
2021/11/29 09:55:22;;;;;;;;;;;1.60;99.90;;;;;;8328607;28;19967;-64
2021/11/29 09:59:27;;;;;;;;;;;1.70;99.90;;;;;;8343609;28;20530;-64
2021/11/29 10:03:28;;;;;;;;;;;1.90;99.90;;;;;;8314294;28;19923;-64
2021/11/29 10:07:34;;;;;;;;;;;2.10;99.90;;;;;;8322832;28;19919;-65
2021/11/29 10:11:34;;;;;;;;;;;2.20;99.90;;;;;;8353724;28;19966;-64
2021/11/29 10:15:36;;;;;;;;;;;1.90;99.90;;;;;;8360120;28;19913;-64
2021/11/29 10:19:37;;;;;;;;;;;2.00;99.90;;;;;;8343432;28;19955;-64
2021/11/29 10:23:49;;;;;;;;;;;2.00;99.90;;;;;;8359017;28;19916;-64
2021/11/29 10:27:50;;;;;;;;;;;1.90;99.90;;;;;;8347277;28;19913;-64
2021/11/29 10:31:51;;;;;;;;;;;1.90;99.90;;;;;;8328075;28;19916;-64
2021/11/29 10:35:51;;;;;;;;;;;2.30;99.90;;;;;;8327878;28;19917;-64
2021/11/29 10:39:52;;;;;;;;;;;3.50;99.90;;;;;;8330857;28;20377;-64
2021/11/29 10:43:53;;;;;;;;;;;4.30;99.90;;;;;;8353548;28;20380;-64
2021/11/29 10:47:54;;;;;;;;;;;3.90;99.90;;;;;;8350525;23;19931;-63
2021/11/29 10:51:56;;;;;;;;;;;3.20;99.90;;;;;;8329553;28;19913;-64
2021/11/29 10:55:58;;;;;;;;;;;2.90;99.90;;;;;;8322814;28;19909;-64
2021/11/29 10:59:58;;;;;;;;;;;2.60;99.90;;;;;;8297014;28;20372;-64
2021/11/29 11:03:59;;;;;;;;;;;2.30;99.90;;;;;;8330304;28;19920;-63
2021/11/29 11:08:06;;;;;;;;;;;2.50;99.90;;;;;;8327284;28;19909;-63
2021/11/29 11:12:09;;;;;;;;;;;2.30;99.90;;;;;;8319399;28;20399;-64
2021/11/29 11:16:09;;;;;;;;;;;2.10;99.90;;;;;;8304473;28;19909;-63
2021/11/29 11:20:13;;;;;;;;;;;1.90;99.90;;;;;;8302698;28;19913;-64
2021/11/29 11:24:17;;;;;;;;;;;2.20;99.90;;;;;;8325965;28;20401;-64
2021/11/29 11:28:17;;;;;;;;;;;3.60;99.90;;;;;;8290192;28;19915;-64
2021/11/29 11:32:32;;;;;;;;;;;5.40;99.90;;;;;;8312163;28;19924;-65
2021/11/29 11:36:32;;;;;;;;;;;8.40;99.90;;;;;;8328051;28;19917;-65
2021/11/29 11:40:37;;;;;;;;;;;10.00;99.90;;;;;;8323265;28;19978;-65
2021/11/29 11:44:38;;;;;;;;;;;12.20;99.90;;;;;;8332851;28;19968;-64
2021/11/29 11:48:39;;;;;;;;;;;12.60;93.10;;;;;;8330678;28;19933;-64
2021/11/29 11:52:41;;;;;;;;;;;11.60;93.80;;;;;;8332483;28;20023;-65
2021/11/29 11:56:41;;;;;;;;;;;12.10;93.20;;;;;;8329380;28;19913;-64
2021/11/29 12:00:41;;;;;;;;;;;11.60;91.10;;;;;;8329990;28;20066;-64
2021/11/29 12:04:42;;;;;;;;;;;10.90;90.80;;;;;;8331934;28;19917;-63
2021/11/29 12:08:46;;;;;;;;;;;9.60;92.30;;;;;;8327802;28;20010;-63
2021/11/29 12:12:59;;;;;;;;;;;7.70;96.40;;;;;;8330970;28;20294;-63
2021/11/29 12:17:01;;;;;;;;;;;5.70;99.90;;;;;;8332033;28;19996;-63
2021/11/29 12:21:16;;;;;;;;;;;5.00;99.90;;;;;;8307562;28;19996;-64
2021/11/29 12:25:22;;;;;;;;;;;5.90;99.90;;;;;;8318948;28;20295;-64
2021/11/29 12:29:22;;;;;;;;;;;5.70;99.90;;;;;;8318354;28;19913;-64
2021/11/29 12:33:41;;;;;;;;;;;5.00;99.90;;;;;;8327741;28;20091;-64
2021/11/29 12:37:43;;;;;;;;;;;4.20;99.90;;;;;;8313890;28;19920;-64
2021/11/29 12:41:44;;;;;;;;;;;4.20;99.90;;;;;;8331434;28;19913;-64
2021/11/29 12:45:44;;;;;;;;;;;4.20;99.90;;;;;;8329512;28;20338;-64
2021/11/29 12:49:45;;;;;;;;;;;4.00;99.90;;;;;;8329661;28;20406;-64
2021/11/29 12:53:46;;;;;;;;;;;3.80;99.90;;;;;;8331178;28;20379;-64
2021/11/29 12:57:49;;;;;;;;;;;3.60;99.90;;;;;;8318153;28;19959;-64
2021/11/29 13:01:50;;;;;;;;;;;3.40;99.90;;;;;;8298343;28;19916;-64
2021/11/29 13:05:55;;;;;;;;;;;3.20;99.90;;;;;;8285166;28;19952;-64
2021/11/29 13:09:55;;;;;;;;;;;3.20;99.90;;;;;;8318467;28;20280;-65
2021/11/29 13:13:59;;;;;;;;;;;3.40;99.90;;;;;;8318476;28;20008;-63
2021/11/29 13:17:59;;;;;;;;;;;3.90;99.90;;;;;;8330579;28;20319;-63
2021/11/29 13:22:01;;;;;;;;;;;4.70;99.90;;;;;;8329149;28;19952;-64
2021/11/29 13:26:06;;;;;;;;;;;4.50;99.90;;;;;;8311785;28;20354;-64
2021/11/29 13:30:08;;;;;;;;;;;4.10;99.90;;;;;;8306314;28;19916;-64
2021/11/29 13:34:09;;;;;;;;;;;4.60;99.90;;;;;;8328980;28;19913;-64
2021/11/29 13:38:10;;;;;;;;;;;7.40;99.90;;;;;;8318345;28;20051;-64
2021/11/29 13:42:16;;;;;;;;;;;7.80;99.90;;;;;;8296589;28;19913;-65
2021/11/29 13:46:17;;;;;;;;;;;6.20;99.90;;;;;;8311577;28;20295;-64
2021/11/29 13:50:18;;;;;;;;;;;4.90;99.90;;;;;;8345028;28;19921;-64
2021/11/29 13:54:19;;;;;;;;;;;3.90;99.90;;;;;;8330184;28;19916;-64
2021/11/29 13:58:23;;;;;;;;;;;3.40;99.90;;;;;;8311956;28;19946;-65
2021/11/29 14:02:24;;;;;;;;;;;3.20;99.90;;;;;;8308687;28;19955;-65
2021/11/29 14:06:25;;;;;;;;;;;2.80;99.90;;;;;;8330131;28;19913;-63
2021/11/29 14:10:40;;;;;;;;;;;2.70;99.90;;;;;;8329296;28;19913;-64
2021/11/29 14:14:42;;;;;;;;;;;2.40;99.90;;;;;;8328770;28;20002;-64
2021/11/29 14:18:44;;;;;;;;;;;2.50;99.90;;;;;;8329788;28;19909;-64
2021/11/29 14:22:49;;;;;;;;;;;2.40;99.90;;;;;;8309594;28;20055;-64
2021/11/29 14:26:53;;;;;;;;;;;2.30;99.90;;;;;;8319922;28;20422;-64
2021/11/29 14:30:53;;;;;;;;;;;2.10;99.90;;;;;;8298629;28;19937;-63
2021/11/29 14:34:58;;;;;;;;;;;2.00;99.90;;;;;;8296609;28;19909;-64
2021/11/29 14:38:59;;;;;;;;;;;2.00;99.90;;;;;;8296804;28;19913;-64
2021/11/29 14:42:59;;;;;;;;;;;1.80;99.90;;;;;;8306791;28;19927;-64
2021/11/29 14:47:07;;;;;;;;;;;1.80;99.90;;;;;;8328241;28;19919;-63
2021/11/29 14:51:08;;;;;;;;;;;1.80;99.90;;;;;;8329031;28;20413;-63
2021/11/29 14:55:12;;;;;;;;;;;1.90;99.90;;;;;;8328860;28;19986;-64
2021/11/29 14:59:24;;;;;;;;;;;1.80;99.90;;;;;;8318670;28;19975;-63
2021/11/29 15:03:27;;;;;;;;;;;1.70;99.90;;;;;;8328688;28;19921;-64
2021/11/29 15:07:29;;;;;;;;;;;1.70;99.90;;;;;;8310301;28;19917;-64
2021/11/29 15:11:34;;;;;;;;;;;1.60;99.90;;;;;;8328196;28;20194;-63
2021/11/29 15:15:35;;;;;;;;;;;1.60;99.90;;;;;;8328396;28;19952;-64
2021/11/29 15:19:39;;;;;;;;;;;1.40;99.90;;;;;;8307533;28;19917;-64
2021/11/29 15:23:39;;;;;;;;;;;1.20;99.90;;;;;;8328480;28;20359;-63
2021/11/29 15:27:41;;;;;;;;;;;1.10;99.90;;;;;;8298249;28;19913;-63
2021/11/29 15:31:41;;;;;;;;;;;1.10;99.90;;;;;;8323215;28;20371;-64
2021/11/29 15:35:42;;;;;;;;;;;1.20;99.90;;;;;;8323806;28;19924;-64
2021/11/29 15:39:42;;;;;;;;;;;1.20;99.90;;;;;;8318371;28;20371;-62
2021/11/29 15:43:47;;;;;;;;;;;1.20;99.90;;;;;;8312292;28;19932;-63
2021/11/29 15:47:47;;;;;;;;;;;1.10;99.90;;;;;;8318017;28;19996;-64
2021/11/29 15:51:48;;;;;;;;;;;1.10;99.90;;;;;;8326730;28;19964;-64
2021/11/29 15:55:48;;;;;;;;;;;1.10;99.90;;;;;;8324941;28;20010;-64
2021/11/29 15:59:49;;;;;;;;;;;1.10;99.90;;;;;;8323117;28;19913;-63
2021/11/29 16:03:51;;;;;;;;;;;1.20;99.90;;;;;;8307295;28;20379;-64
2021/11/29 16:07:51;;;;;;;;;;;1.10;99.90;;;;;;8308042;28;19909;-64
2021/11/29 16:11:52;;;;;;;;;;;1.10;99.90;;;;;;8325646;28;19921;-62
2021/11/29 16:15:53;;;;;;;;;;;1.00;99.90;;;;;;8300177;28;19910;-64
2021/11/29 16:19:53;;;;;;;;;;;1.00;99.90;;;;;;8308456;28;20012;-64
2021/11/29 16:23:55;;;;;;;;;;;1.10;99.90;;;;;;8305777;28;19920;-64
2021/11/29 16:27:55;;;;;;;;;;;1.00;99.90;;;;;;8297060;28;19924;-64
2021/11/29 16:31:57;;;;;;;;;;;1.00;99.90;;;;;;8329008;28;19909;-63
2021/11/29 16:35:59;;;;;;;;;;;1.00;99.90;;;;;;8313399;28;20364;-64
2021/11/29 16:39:59;;;;;;;;;;;0.90;99.90;;;;;;8330778;28;19917;-64
2021/11/29 16:43:59;;;;;;;;;;;0.90;99.90;;;;;;8312077;28;20394;-64
2021/11/29 16:48:00;;;;;;;;;;;0.80;99.90;;;;;;8341887;23;20205;-64
2021/11/29 16:52:01;;;;;;;;;;;0.70;99.90;;;;;;8326338;28;19952;-64
2021/11/29 16:56:02;;;;;;;;;;;0.70;99.90;;;;;;8334387;28;20191;-64
2021/11/29 17:00:08;;;;;;;;;;;0.70;99.90;;;;;;8340848;28;19913;-64
2021/11/29 17:04:09;;;;;;;;;;;0.80;99.90;;;;;;8330103;28;19925;-65
2021/11/29 17:08:09;;;;;;;;;;;0.70;99.90;;;;;;8311778;28;19913;-64
2021/11/29 17:12:10;;;;;;;;;;;0.80;99.90;;;;;;8329327;28;19917;-64
2021/11/29 17:16:10;;;;;;;;;;;0.70;99.90;;;;;;8330173;28;19909;-65
2021/11/29 17:20:13;;;;;;;;;;;0.70;99.90;;;;;;8331601;28;20214;-65
2021/11/29 17:24:13;;;;;;;;;;;0.80;99.90;;;;;;8338451;28;19987;-65
2021/11/29 17:28:14;;;;;;;;;;;0.70;99.90;;;;;;8334958;28;19913;-65
2021/11/29 17:32:15;;;;;;;;;;;0.80;99.90;;;;;;8331819;28;19917;-65
2021/11/29 17:36:15;;;;;;;;;;;0.70;99.90;;;;;;8319264;28;19957;-67
2021/11/29 17:40:18;;;;;;;;;;;0.80;99.90;;;;;;8335765;28;19914;-68
2021/11/29 17:44:19;;;;;;;;;;;0.80;99.90;;;;;;8341660;28;20409;-67
2021/11/29 17:48:25;;;;;;;;;;;0.70;99.90;;;;;;8338297;28;20003;-69
2021/11/29 17:52:26;;;;;;;;;;;0.80;99.90;;;;;;8335322;28;19943;-67
2021/11/29 17:56:27;;;;;;;;;;;0.70;99.90;;;;;;8327714;28;19917;-67
2021/11/29 18:00:29;;;;;;;;;;;0.70;99.90;;;;;;8320401;28;19917;-67
2021/11/29 18:04:31;;;;;;;;;;;0.80;99.90;;;;;;8316354;28;20368;-67
2021/11/29 18:12:36;;;;;;;;;;;0.70;99.90;;;;;;8296221;28;19924;-67
2021/11/29 18:16:37;;;;;;;;;;;0.70;99.90;;;;;;8308400;28;19974;-67
2021/11/29 18:20:39;;;;;;;;;;;0.60;99.90;;;;;;8299390;28;19922;-67
2021/11/29 18:24:39;;;;;;;;;;;0.70;99.90;;;;;;8292604;28;19983;-68
2021/11/29 18:28:41;;;;;;;;;;;0.70;99.90;;;;;;8309254;28;20386;-67
2021/11/29 18:32:42;;;;;;;;;;;0.70;99.90;;;;;;8297034;28;19925;-67
2021/11/29 18:36:42;;;;;;;;;;;0.60;99.90;;;;;;8324220;28;20436;-67
2021/11/29 18:40:43;;;;;;;;;;;0.70;99.90;;;;;;8284187;28;19922;-67
2021/11/29 18:44:43;;;;;;;;;;;0.70;99.90;;;;;;8317438;28;19917;-68
2021/11/29 18:48:44;;;;;;;;;;;0.50;99.90;;;;;;8314907;28;20303;-68
2021/11/29 18:52:45;;;;;;;;;;;0.40;99.90;;;;;;8324789;28;19917;-66
2021/11/29 18:56:45;;;;;;;;;;;0.40;99.90;;;;;;8324278;28;19933;-65
2021/11/29 19:00:47;;;;;;;;;;;0.30;99.90;;;;;;8320961;28;20339;-66
2021/11/29 19:04:47;;;;;;;;;;;0.30;99.90;;;;;;8313769;28;20338;-65
2021/11/29 19:08:48;;;;;;;;;;;0.20;99.90;;;;;;8301390;28;19956;-65
2021/11/29 19:12:49;;;;;;;;;;;0.20;99.90;;;;;;8319851;28;20020;-66
2021/11/29 19:16:50;;;;;;;;;;;0.20;99.90;;;;;;8305828;28;19964;-65
2021/11/29 19:20:50;;;;;;;;;;;0.20;99.90;;;;;;8293697;28;20414;-65
2021/11/29 19:24:51;;;;;;;;;;;0.20;99.90;;;;;;8289940;28;20330;-65
2021/11/29 19:28:51;;;;;;;;;;;0.20;99.90;;;;;;8312560;28;20391;-65
2021/11/29 19:32:52;;;;;;;;;;;0.30;99.90;;;;;;8304079;28;19917;-65
2021/11/29 19:36:53;;;;;;;;;;;0.30;99.90;;;;;;8283310;28;19940;-65
2021/11/29 19:45:04;;;;;;;;;;;0.30;99.90;;;;;;8304803;28;19972;-65
2021/11/29 19:49:42;;;;;;;;;;;0.30;99.90;;;;;;8295940;28;19925;-66
2021/11/29 19:53:43;;;;;;;;;;;0.30;99.90;;;;;;8295008;28;19924;-66
2021/11/29 19:57:44;;;;;;;;;;;0.40;99.90;;;;;;8314971;28;19920;-64
2021/11/29 20:01:45;;;;;;;;;;;0.40;99.90;;;;;;8315428;28;19952;-64
2021/11/29 20:05:45;;;;;;;;;;;0.40;99.90;;;;;;8312950;28;19920;-65
2021/11/29 20:09:46;;;;;;;;;;;0.40;99.90;;;;;;8329118;28;19913;-65
2021/11/29 20:13:49;;;;;;;;;;;0.40;99.90;;;;;;8328054;28;19917;-65
2021/11/29 20:17:50;;;;;;;;;;;0.40;99.90;;;;;;8327452;28;19921;-65
2021/11/29 20:21:51;;;;;;;;;;;0.30;99.90;;;;;;8328104;28;19913;-65
2021/11/29 20:25:52;;;;;;;;;;;0.30;99.90;;;;;;8309022;28;19956;-65
2021/11/29 20:29:55;;;;;;;;;;;0.30;99.90;;;;;;8312013;28;19917;-65
2021/11/29 20:33:57;;;;;;;;;;;0.20;99.90;;;;;;8326283;28;20364;-64
2021/11/29 20:37:58;;;;;;;;;;;0.30;99.90;;;;;;8314759;28;19950;-65
2021/11/29 20:41:59;;;;;;;;;;;0.30;99.90;;;;;;8336691;28;20582;-65
2021/11/29 20:46:01;;;;;;;;;;;0.20;99.90;;;;;;8342376;28;19921;-66
2021/11/29 20:50:01;;;;;;;;;;;0.20;99.90;;;;;;8332731;28;20474;-65
2021/11/29 20:54:03;;;;;;;;;;;0.30;99.90;;;;;;8341413;28;19916;-65
2021/11/29 20:58:04;;;;;;;;;;;0.20;99.90;;;;;;8324535;28;19924;-64
2021/11/29 21:02:04;;;;;;;;;;;0.30;99.90;;;;;;8348340;28;19924;-65
2021/11/29 21:06:05;;;;;;;;;;;0.30;99.90;;;;;;8325684;28;20318;-65
2021/11/29 21:10:05;;;;;;;;;;;0.30;99.90;;;;;;8307546;28;19919;-65
2021/11/29 21:14:06;;;;;;;;;;;0.20;99.90;;;;;;8326475;28;20663;-65
2021/11/29 21:18:07;;;;;;;;;;;0.20;99.90;;;;;;8306727;28;19914;-65
2021/11/29 21:22:07;;;;;;;;;;;0.30;99.90;;;;;;8306987;28;20359;-65
2021/11/29 21:26:08;;;;;;;;;;;0.20;99.90;;;;;;8327600;28;20407;-65
2021/11/29 21:30:08;;;;;;;;;;;0.20;99.90;;;;;;8327527;28;19909;-65
2021/11/29 21:34:09;;;;;;;;;;;0.10;99.90;;;;;;8310654;28;19921;-65
2021/11/29 21:38:11;;;;;;;;;;;0.20;99.90;;;;;;8329028;28;20395;-65
2021/11/29 21:42:11;;;;;;;;;;;0.20;99.90;;;;;;8345754;28;19916;-65
2021/11/29 21:46:13;;;;;;;;;;;0.30;99.90;;;;;;8310461;28;22201;-65
2021/11/29 21:50:14;;;;;;;;;;;0.30;99.90;;;;;;8332235;28;20284;-64
2021/11/29 21:54:14;;;;;;;;;;;0.30;99.90;;;;;;8309964;28;19913;-65
2021/11/29 21:58:15;;;;;;;;;;;0.30;99.90;;;;;;8310648;28;19977;-65
2021/11/29 22:02:15;;;;;;;;;;;0.30;99.90;;;;;;8326757;28;19909;-64
2021/11/29 22:06:16;;;;;;;;;;;0.40;99.90;;;;;;8328114;28;19913;-64
2021/11/29 22:10:16;;;;;;;;;;;0.30;99.90;;;;;;8310088;28;19916;-64
2021/11/29 22:14:17;;;;;;;;;;;0.40;99.90;;;;;;8328268;28;19916;-65
2021/11/29 22:18:17;;;;;;;;;;;0.30;99.90;;;;;;8328070;28;19963;-64
2021/11/29 22:22:18;;;;;;;;;;;0.30;99.90;;;;;;8309096;28;19916;-65
2021/11/29 22:26:20;;;;;;;;;;;0.30;99.90;;;;;;8327701;28;19917;-65
2021/11/29 22:30:21;;;;;;;;;;;0.20;99.90;;;;;;8327132;28;19978;-65
2021/11/29 22:34:21;;;;;;;;;;;0.20;99.90;;;;;;8327273;28;19910;-64
2021/11/29 22:38:22;;;;;;;;;;;0.20;99.90;;;;;;8327121;28;19913;-65
2021/11/29 22:42:22;;;;;;;;;;;0.20;99.90;;;;;;8327018;28;20279;-65
2021/11/29 22:46:23;;;;;;;;;;;0.20;99.90;;;;;;8327234;28;20003;-65
2021/11/29 22:50:24;;;;;;;;;;;0.10;99.90;;;;;;8355255;23;19986;-64
2021/11/29 22:54:25;;;;;;;;;;;0.20;99.90;;;;;;8359013;28;20015;-64
2021/11/29 22:58:26;;;;;;;;;;;0.20;99.90;;;;;;8359588;28;19913;-64
2021/11/29 23:02:26;;;;;;;;;;;0.20;99.90;;;;;;8340988;28;20321;-64
2021/11/29 23:06:27;;;;;;;;;;;0.20;99.90;;;;;;8359322;28;20046;-64
2021/11/29 23:10:27;;;;;;;;;;;0.20;99.90;;;;;;8359263;28;19909;-64
2021/11/29 23:14:28;;;;;;;;;;;0.20;99.90;;;;;;8359431;28;19909;-64
2021/11/29 23:18:29;;;;;;;;;;;0.30;99.90;;;;;;8359169;28;19909;-64
2021/11/29 23:22:29;;;;;;;;;;;0.20;99.90;;;;;;8359498;28;19956;-64
2021/11/29 23:26:29;;;;;;;;;;;0.20;99.90;;;;;;8341380;28;20019;-64
2021/11/29 23:30:30;;;;;;;;;;;0.30;99.90;;;;;;8358069;28;19913;-64
2021/11/29 23:34:30;;;;;;;;;;;0.30;99.90;;;;;;8350329;28;19909;-64
2021/11/29 23:38:31;;;;;;;;;;;0.30;99.90;;;;;;8358523;28;19971;-64
2021/11/29 23:42:32;;;;;;;;;;;0.30;99.90;;;;;;8358644;28;20335;-64
2021/11/29 23:46:36;;;;;;;;;;;0.30;99.90;;;;;;8358662;28;19913;-64
2021/11/29 23:50:41;;;;;;;;;;;0.30;99.90;;;;;;8358399;28;19920;-64